Latest METARs, TAFs and NOTAMs for LHBP


---------------------------------------------------------------------------
	(OBSERVATIONS)
Sorry, no metar available for LHBP
---------------------------------------------------------------------------
	(FC)
Sorry, FC For LHBP Not Found
---------------------------------------------------------------------------
	(TERMINAL AREA FORECAST)
LHBP 151715Z 1518/1618 23005KT 9999 FEW008 FEW040CB BKN100
    BECMG 1518/1521 31008KT CAVOK
    TEMPO 1521/1602 -SHRA SCT050TCU SCT070
    TEMPO 1608/1612 SCT035 BKN200
    TEMPO 1612/1618 22008KT -RA=
---------------------------------------------------------------------------
	(NOTAMS)


Sorry, no NOTAM available for LHBP
---------------------------------------------------------------------------